sensor_id;sensor_type;location;lat;lon;timestamp;P1;durP1;ratioP1;P2;durP2;ratioP2
83151;SDS011;73381;58.502;8.624;2024-02-26T00:00:49;1.13;;;0.52;;
83151;SDS011;73381;58.502;8.624;2024-02-26T00:03:53;3.63;;;1.13;;
83151;SDS011;73381;58.502;8.624;2024-02-26T00:06:55;2.40;;;1.10;;
83151;SDS011;73381;58.502;8.624;2024-02-26T00:19:32;2.75;;;1.00;;
83151;SDS011;73381;58.502;8.624;2024-02-26T00:22:36;3.20;;;0.85;;
83151;SDS011;73381;58.502;8.624;2024-02-26T00:28:40;2.15;;;0.90;;
83151;SDS011;73381;58.502;8.624;2024-02-26T00:31:42;2.55;;;1.10;;
83151;SDS011;73381;58.502;8.624;2024-02-26T00:34:57;2.20;;;0.88;;
83151;SDS011;73381;58.502;8.624;2024-02-26T00:38:16;2.42;;;0.90;;
83151;SDS011;73381;58.502;8.624;2024-02-26T00:41:18;2.38;;;0.85;;
83151;SDS011;73381;58.502;8.624;2024-02-26T00:44:20;1.98;;;0.80;;
83151;SDS011;73381;58.502;8.624;2024-02-26T00:47:22;1.88;;;0.80;;
83151;SDS011;73381;58.502;8.624;2024-02-26T00:50:33;2.25;;;0.90;;
83151;SDS011;73381;58.502;8.624;2024-02-26T00:53:35;2.22;;;0.90;;
83151;SDS011;73381;58.502;8.624;2024-02-26T00:56:43;2.60;;;1.00;;
83151;SDS011;73381;58.502;8.624;2024-02-26T01:00:01;1.95;;;0.65;;
83151;SDS011;73381;58.502;8.624;2024-02-26T01:03:04;1.40;;;0.60;;
83151;SDS011;73381;58.502;8.624;2024-02-26T01:09:12;2.25;;;0.57;;
83151;SDS011;73381;58.502;8.624;2024-02-26T01:12:14;2.33;;;0.75;;
83151;SDS011;73381;58.502;8.624;2024-02-26T01:15:16;1.23;;;0.50;;
83151;SDS011;73381;58.502;8.624;2024-02-26T01:18:22;2.80;;;0.70;;
83151;SDS011;73381;58.502;8.624;2024-02-26T01:21:24;1.17;;;0.60;;
83151;SDS011;73381;58.502;8.624;2024-02-26T01:27:44;1.85;;;0.75;;
83151;SDS011;73381;58.502;8.624;2024-02-26T01:30:46;1.17;;;0.60;;
83151;SDS011;73381;58.502;8.624;2024-02-26T01:37:06;2.80;;;0.95;;
83151;SDS011;73381;58.502;8.624;2024-02-26T01:40:12;1.60;;;0.52;;
83151;SDS011;73381;58.502;8.624;2024-02-26T01:43:19;0.85;;;0.40;;
83151;SDS011;73381;58.502;8.624;2024-02-26T01:53:14;1.65;;;0.55;;
83151;SDS011;73381;58.502;8.624;2024-02-26T01:59:24;1.23;;;0.50;;
83151;SDS011;73381;58.502;8.624;2024-02-26T02:02:29;1.42;;;0.65;;
83151;SDS011;73381;58.502;8.624;2024-02-26T02:05:31;0.52;;;0.35;;
83151;SDS011;73381;58.502;8.624;2024-02-26T02:08:35;0.40;;;0.28;;
83151;SDS011;73381;58.502;8.624;2024-02-26T02:14:53;1.30;;;0.52;;
83151;SDS011;73381;58.502;8.624;2024-02-26T02:17:57;1.52;;;0.60;;
83151;SDS011;73381;58.502;8.624;2024-02-26T02:21:01;2.60;;;0.40;;
83151;SDS011;73381;58.502;8.624;2024-02-26T02:24:04;1.42;;;0.45;;
83151;SDS011;73381;58.502;8.624;2024-02-26T02:27:06;2.17;;;0.55;;
83151;SDS011;73381;58.502;8.624;2024-02-26T02:30:09;1.10;;;0.57;;
83151;SDS011;73381;58.502;8.624;2024-02-26T02:33:23;0.95;;;0.40;;
83151;SDS011;73381;58.502;8.624;2024-02-26T02:39:33;0.55;;;0.20;;
83151;SDS011;73381;58.502;8.624;2024-02-26T02:42:35;0.68;;;0.28;;
83151;SDS011;73381;58.502;8.624;2024-02-26T02:45:37;0.45;;;0.20;;
83151;SDS011;73381;58.502;8.624;2024-02-26T02:48:42;1.65;;;0.52;;
83151;SDS011;73381;58.502;8.624;2024-02-26T02:52:09;0.77;;;0.30;;
83151;SDS011;73381;58.502;8.624;2024-02-26T02:55:12;0.60;;;0.25;;
83151;SDS011;73381;58.502;8.624;2024-02-26T02:58:16;0.70;;;0.30;;
83151;SDS011;73381;58.502;8.624;2024-02-26T03:01:27;0.85;;;0.22;;
83151;SDS011;73381;58.502;8.624;2024-02-26T03:04:32;0.57;;;0.32;;
83151;SDS011;73381;58.502;8.624;2024-02-26T03:07:34;1.15;;;0.30;;
83151;SDS011;73381;58.502;8.624;2024-02-26T03:10:38;2.60;;;0.50;;
83151;SDS011;73381;58.502;8.624;2024-02-26T03:13:40;1.15;;;0.38;;
83151;SDS011;73381;58.502;8.624;2024-02-26T03:16:42;0.75;;;0.30;;
83151;SDS011;73381;58.502;8.624;2024-02-26T03:19:44;0.88;;;0.30;;
83151;SDS011;73381;58.502;8.624;2024-02-26T03:22:58;2.75;;;0.32;;
83151;SDS011;73381;58.502;8.624;2024-02-26T03:26:02;0.77;;;0.22;;
83151;SDS011;73381;58.502;8.624;2024-02-26T03:29:04;2.60;;;0.30;;
83151;SDS011;73381;58.502;8.624;2024-02-26T03:32:07;1.23;;;0.45;;
83151;SDS011;73381;58.502;8.624;2024-02-26T03:35:09;1.63;;;0.50;;
83151;SDS011;73381;58.502;8.624;2024-02-26T03:38:11;0.30;;;0.20;;
83151;SDS011;73381;58.502;8.624;2024-02-26T03:41:15;0.20;;;0.15;;
83151;SDS011;73381;58.502;8.624;2024-02-26T03:44:20;1.17;;;0.40;;
83151;SDS011;73381;58.502;8.624;2024-02-26T03:47:24;1.08;;;0.50;;
83151;SDS011;73381;58.502;8.624;2024-02-26T03:50:26;0.45;;;0.20;;
83151;SDS011;73381;58.502;8.624;2024-02-26T03:53:28;1.08;;;0.30;;
83151;SDS011;73381;58.502;8.624;2024-02-26T03:59:38;0.90;;;0.20;;
83151;SDS011;73381;58.502;8.624;2024-02-26T04:02:40;0.20;;;0.13;;
83151;SDS011;73381;58.502;8.624;2024-02-26T04:05:44;2.50;;;0.32;;
83151;SDS011;73381;58.502;8.624;2024-02-26T04:08:46;0.38;;;0.20;;
83151;SDS011;73381;58.502;8.624;2024-02-26T04:11:48;0.73;;;0.22;;
83151;SDS011;73381;58.502;8.624;2024-02-26T04:14:52;0.85;;;0.20;;
83151;SDS011;73381;58.502;8.624;2024-02-26T04:17:54;0.57;;;0.17;;
83151;SDS011;73381;58.502;8.624;2024-02-26T04:20:56;0.55;;;0.20;;
83151;SDS011;73381;58.502;8.624;2024-02-26T04:24:11;0.65;;;0.08;;
83151;SDS011;73381;58.502;8.624;2024-02-26T04:27:13;0.47;;;0.17;;
83151;SDS011;73381;58.502;8.624;2024-02-26T04:30:16;0.08;;;0.08;;
83151;SDS011;73381;58.502;8.624;2024-02-26T04:36:37;0.82;;;0.25;;
83151;SDS011;73381;58.502;8.624;2024-02-26T04:39:39;0.65;;;0.25;;
83151;SDS011;73381;58.502;8.624;2024-02-26T04:42:40;0.52;;;0.32;;
83151;SDS011;73381;58.502;8.624;2024-02-26T04:45:45;2.30;;;0.70;;
83151;SDS011;73381;58.502;8.624;2024-02-26T04:48:47;3.45;;;0.98;;
83151;SDS011;73381;58.502;8.624;2024-02-26T04:55:00;0.82;;;0.20;;
83151;SDS011;73381;58.502;8.624;2024-02-26T04:58:03;1.45;;;0.43;;
83151;SDS011;73381;58.502;8.624;2024-02-26T05:01:06;1.80;;;0.50;;
83151;SDS011;73381;58.502;8.624;2024-02-26T05:04:08;0.68;;;0.30;;
83151;SDS011;73381;58.502;8.624;2024-02-26T05:17:17;1.00;;;0.45;;
83151;SDS011;73381;58.502;8.624;2024-02-26T05:20:19;1.25;;;0.40;;
83151;SDS011;73381;58.502;8.624;2024-02-26T05:26:32;0.55;;;0.20;;
83151;SDS011;73381;58.502;8.624;2024-02-26T05:29:33;1.55;;;0.43;;
83151;SDS011;73381;58.502;8.624;2024-02-26T05:32:37;0.52;;;0.20;;
83151;SDS011;73381;58.502;8.624;2024-02-26T05:35:41;1.45;;;0.30;;
83151;SDS011;73381;58.502;8.624;2024-02-26T05:41:46;0.75;;;0.40;;
83151;SDS011;73381;58.502;8.624;2024-02-26T05:44:48;1.65;;;0.40;;
83151;SDS011;73381;58.502;8.624;2024-02-26T05:47:52;0.73;;;0.40;;
83151;SDS011;73381;58.502;8.624;2024-02-26T05:50:54;0.68;;;0.32;;
83151;SDS011;73381;58.502;8.624;2024-02-26T05:53:59;0.63;;;0.30;;
83151;SDS011;73381;58.502;8.624;2024-02-26T05:57:01;0.38;;;0.20;;
83151;SDS011;73381;58.502;8.624;2024-02-26T06:00:04;0.75;;;0.35;;
83151;SDS011;73381;58.502;8.624;2024-02-26T06:03:09;2.83;;;0.73;;
83151;SDS011;73381;58.502;8.624;2024-02-26T06:06:11;1.52;;;0.47;;
83151;SDS011;73381;58.502;8.624;2024-02-26T06:18:50;1.25;;;0.65;;
83151;SDS011;73381;58.502;8.624;2024-02-26T06:21:57;2.28;;;0.88;;
83151;SDS011;73381;58.502;8.624;2024-02-26T06:25:02;1.13;;;0.68;;
83151;SDS011;73381;58.502;8.624;2024-02-26T06:31:12;1.35;;;0.65;;
83151;SDS011;73381;58.502;8.624;2024-02-26T06:34:44;2.65;;;0.88;;
83151;SDS011;73381;58.502;8.624;2024-02-26T06:38:15;1.17;;;0.57;;
83151;SDS011;73381;58.502;8.624;2024-02-26T06:41:17;1.08;;;0.45;;
83151;SDS011;73381;58.502;8.624;2024-02-26T08:36:51;1.23;;;0.60;;
83151;SDS011;73381;58.502;8.624;2024-02-26T08:39:53;3.30;;;0.95;;
83151;SDS011;73381;58.502;8.624;2024-02-26T08:42:56;2.95;;;1.23;;
83151;SDS011;73381;58.502;8.624;2024-02-26T08:45:57;3.60;;;2.08;;
83151;SDS011;73381;58.502;8.624;2024-02-26T08:48:59;3.28;;;1.73;;
83151;SDS011;73381;58.502;8.624;2024-02-26T08:55:19;3.35;;;1.30;;
83151;SDS011;73381;58.502;8.624;2024-02-26T08:58:21;2.40;;;1.20;;
83151;SDS011;73381;58.502;8.624;2024-02-26T09:01:23;2.42;;;1.02;;
83151;SDS011;73381;58.502;8.624;2024-02-26T09:04:25;2.90;;;0.80;;
83151;SDS011;73381;58.502;8.624;2024-02-26T09:07:27;2.05;;;0.55;;
83151;SDS011;73381;58.502;8.624;2024-02-26T09:10:31;2.25;;;0.75;;
83151;SDS011;73381;58.502;8.624;2024-02-26T09:13:33;1.67;;;0.40;;
83151;SDS011;73381;58.502;8.624;2024-02-26T09:16:35;1.48;;;0.60;;
83151;SDS011;73381;58.502;8.624;2024-02-26T09:26:06;1.00;;;0.35;;
83151;SDS011;73381;58.502;8.624;2024-02-26T09:29:08;1.85;;;0.32;;
83151;SDS011;73381;58.502;8.624;2024-02-26T09:32:10;0.70;;;0.43;;
83151;SDS011;73381;58.502;8.624;2024-02-26T09:35:12;0.47;;;0.40;;
83151;SDS011;73381;58.502;8.624;2024-02-26T09:38:14;1.20;;;0.50;;
83151;SDS011;73381;58.502;8.624;2024-02-26T09:41:24;0.98;;;0.30;;
83151;SDS011;73381;58.502;8.624;2024-02-26T09:44:38;0.45;;;0.30;;
83151;SDS011;73381;58.502;8.624;2024-02-26T09:47:52;0.85;;;0.30;;
83151;SDS011;73381;58.502;8.624;2024-02-26T09:51:14;0.95;;;0.22;;
83151;SDS011;73381;58.502;8.624;2024-02-26T09:54:28;2.30;;;0.35;;
83151;SDS011;73381;58.502;8.624;2024-02-26T10:00:46;0.85;;;0.30;;
83151;SDS011;73381;58.502;8.624;2024-02-26T10:03:56;1.08;;;0.43;;
83151;SDS011;73381;58.502;8.624;2024-02-26T10:07:10;0.73;;;0.30;;
83151;SDS011;73381;58.502;8.624;2024-02-26T10:10:13;0.30;;;0.13;;
83151;SDS011;73381;58.502;8.624;2024-02-26T10:13:22;1.15;;;0.25;;
83151;SDS011;73381;58.502;8.624;2024-02-26T10:19:36;0.20;;;0.20;;
83151;SDS011;73381;58.502;8.624;2024-02-26T10:22:40;0.30;;;0.10;;
83151;SDS011;73381;58.502;8.624;2024-02-26T10:25:53;0.38;;;0.22;;
83151;SDS011;73381;58.502;8.624;2024-02-26T10:28:55;0.22;;;0.20;;
83151;SDS011;73381;58.502;8.624;2024-02-26T10:32:01;0.55;;;0.20;;
83151;SDS011;73381;58.502;8.624;2024-02-26T10:35:09;0.47;;;0.25;;
83151;SDS011;73381;58.502;8.624;2024-02-26T10:38:11;0.57;;;0.10;;
83151;SDS011;73381;58.502;8.624;2024-02-26T10:41:14;0.57;;;0.13;;
83151;SDS011;73381;58.502;8.624;2024-02-26T10:44:17;0.35;;;0.20;;
83151;SDS011;73381;58.502;8.624;2024-02-26T10:50:40;1.20;;;0.15;;
83151;SDS011;73381;58.502;8.624;2024-02-26T10:53:42;0.22;;;0.10;;
83151;SDS011;73381;58.502;8.624;2024-02-26T10:56:47;0.32;;;0.10;;
83151;SDS011;73381;58.502;8.624;2024-02-26T10:59:51;1.33;;;0.10;;
83151;SDS011;73381;58.502;8.624;2024-02-26T11:02:56;0.10;;;0.10;;
83151;SDS011;73381;58.502;8.624;2024-02-26T11:06:00;2.75;;;0.30;;
83151;SDS011;73381;58.502;8.624;2024-02-26T11:09:03;0.55;;;0.20;;
83151;SDS011;73381;58.502;8.624;2024-02-26T11:12:08;0.40;;;0.20;;
83151;SDS011;73381;58.502;8.624;2024-02-26T11:15:13;0.10;;;0.10;;
83151;SDS011;73381;58.502;8.624;2024-02-26T11:18:15;0.52;;;0.17;;
83151;SDS011;73381;58.502;8.624;2024-02-26T11:24:36;0.38;;;0.20;;
83151;SDS011;73381;58.502;8.624;2024-02-26T11:27:39;0.08;;;0.08;;
83151;SDS011;73381;58.502;8.624;2024-02-26T11:30:45;1.10;;;0.30;;
83151;SDS011;73381;58.502;8.624;2024-02-26T11:33:49;0.03;;;0.00;;
83151;SDS011;73381;58.502;8.624;2024-02-26T11:40:07;0.38;;;0.10;;
83151;SDS011;73381;58.502;8.624;2024-02-26T11:46:24;1.75;;;0.43;;
83151;SDS011;73381;58.502;8.624;2024-02-26T11:49:30;0.17;;;0.03;;
83151;SDS011;73381;58.502;8.624;2024-02-26T11:52:33;1.63;;;0.20;;
83151;SDS011;73381;58.502;8.624;2024-02-26T11:55:36;0.55;;;0.25;;
83151;SDS011;73381;58.502;8.624;2024-02-26T11:58:39;0.00;;;0.00;;
83151;SDS011;73381;58.502;8.624;2024-02-26T12:01:42;0.38;;;0.15;;
83151;SDS011;73381;58.502;8.624;2024-02-26T12:04:45;0.80;;;0.20;;
83151;SDS011;73381;58.502;8.624;2024-02-26T12:10:58;0.35;;;0.10;;
83151;SDS011;73381;58.502;8.624;2024-02-26T12:20:22;0.52;;;0.10;;
83151;SDS011;73381;58.502;8.624;2024-02-26T12:23:25;0.43;;;0.17;;
83151;SDS011;73381;58.502;8.624;2024-02-26T12:26:30;1.45;;;0.20;;
83151;SDS011;73381;58.502;8.624;2024-02-26T12:29:32;0.32;;;0.10;;
83151;SDS011;73381;58.502;8.624;2024-02-26T12:32:34;0.30;;;0.13;;
83151;SDS011;73381;58.502;8.624;2024-02-26T12:35:36;0.88;;;0.20;;
83151;SDS011;73381;58.502;8.624;2024-02-26T12:38:38;1.75;;;0.10;;
83151;SDS011;73381;58.502;8.624;2024-02-26T12:41:43;0.13;;;0.13;;
83151;SDS011;73381;58.502;8.624;2024-02-26T12:44:45;0.10;;;0.10;;
83151;SDS011;73381;58.502;8.624;2024-02-26T12:47:48;0.05;;;0.03;;
83151;SDS011;73381;58.502;8.624;2024-02-26T12:50:50;1.67;;;0.10;;
83151;SDS011;73381;58.502;8.624;2024-02-26T12:53:52;0.25;;;0.08;;
83151;SDS011;73381;58.502;8.624;2024-02-26T12:56:59;0.35;;;0.05;;
83151;SDS011;73381;58.502;8.624;2024-02-26T13:00:10;0.98;;;0.10;;
83151;SDS011;73381;58.502;8.624;2024-02-26T13:03:14;0.52;;;0.13;;
83151;SDS011;73381;58.502;8.624;2024-02-26T13:06:17;0.10;;;0.08;;
83151;SDS011;73381;58.502;8.624;2024-02-26T13:12:27;0.65;;;0.20;;
83151;SDS011;73381;58.502;8.624;2024-02-26T13:15:31;0.20;;;0.15;;
83151;SDS011;73381;58.502;8.624;2024-02-26T13:28:18;0.85;;;0.20;;
83151;SDS011;73381;58.502;8.624;2024-02-26T13:34:23;0.45;;;0.05;;
83151;SDS011;73381;58.502;8.624;2024-02-26T13:37:26;0.25;;;0.10;;
83151;SDS011;73381;58.502;8.624;2024-02-26T13:44:02;0.38;;;0.10;;
83151;SDS011;73381;58.502;8.624;2024-02-26T13:47:47;1.30;;;0.15;;
83151;SDS011;73381;58.502;8.624;2024-02-26T13:50:50;0.13;;;0.00;;
83151;SDS011;73381;58.502;8.624;2024-02-26T13:53:52;0.10;;;0.10;;
83151;SDS011;73381;58.502;8.624;2024-02-26T13:57:01;0.20;;;0.10;;
83151;SDS011;73381;58.502;8.624;2024-02-26T14:03:53;0.40;;;0.20;;
83151;SDS011;73381;58.502;8.624;2024-02-26T14:10:07;0.20;;;0.00;;
83151;SDS011;73381;58.502;8.624;2024-02-26T14:30:30;0.22;;;0.10;;
83151;SDS011;73381;58.502;8.624;2024-02-26T16:03:08;1.13;;;0.20;;
83151;SDS011;73381;58.502;8.624;2024-02-26T16:54:22;5.60;;;0.70;;
83151;SDS011;73381;58.502;8.624;2024-02-26T16:57:29;1.52;;;0.60;;
83151;SDS011;73381;58.502;8.624;2024-02-26T17:00:35;1.95;;;0.60;;
83151;SDS011;73381;58.502;8.624;2024-02-26T17:13:29;2.38;;;0.80;;
83151;SDS011;73381;58.502;8.624;2024-02-26T17:16:34;5.20;;;1.15;;
83151;SDS011;73381;58.502;8.624;2024-02-26T17:19:46;3.55;;;1.25;;
83151;SDS011;73381;58.502;8.624;2024-02-26T17:26:10;9.52;;;2.97;;
83151;SDS011;73381;58.502;8.624;2024-02-26T17:29:19;10.32;;;3.13;;
83151;SDS011;73381;58.502;8.624;2024-02-26T17:32:22;6.57;;;2.50;;
83151;SDS011;73381;58.502;8.624;2024-02-26T17:35:26;5.03;;;1.80;;
83151;SDS011;73381;58.502;8.624;2024-02-26T17:38:28;9.80;;;4.47;;
83151;SDS011;73381;58.502;8.624;2024-02-26T17:41:31;7.70;;;3.06;;
83151;SDS011;73381;58.502;8.624;2024-02-26T17:44:38;8.15;;;2.38;;
83151;SDS011;73381;58.502;8.624;2024-02-26T17:47:43;11.30;;;3.08;;
83151;SDS011;73381;58.502;8.624;2024-02-26T17:57:22;9.68;;;3.92;;
83151;SDS011;73381;58.502;8.624;2024-02-26T18:00:26;8.68;;;4.38;;
83151;SDS011;73381;58.502;8.624;2024-02-26T18:09:42;5.40;;;2.45;;
83151;SDS011;73381;58.502;8.624;2024-02-26T18:12:50;5.88;;;3.10;;
83151;SDS011;73381;58.502;8.624;2024-02-26T18:15:54;7.22;;;3.50;;
83151;SDS011;73381;58.502;8.624;2024-02-26T18:18:55;6.28;;;2.85;;
83151;SDS011;73381;58.502;8.624;2024-02-26T18:21:57;8.30;;;2.92;;
83151;SDS011;73381;58.502;8.624;2024-02-26T18:24:59;5.53;;;2.10;;
83151;SDS011;73381;58.502;8.624;2024-02-26T18:28:02;4.65;;;1.85;;
83151;SDS011;73381;58.502;8.624;2024-02-26T18:31:05;5.28;;;2.13;;
83151;SDS011;73381;58.502;8.624;2024-02-26T18:34:07;5.18;;;1.58;;
83151;SDS011;73381;58.502;8.624;2024-02-26T18:37:09;4.90;;;1.80;;
83151;SDS011;73381;58.502;8.624;2024-02-26T18:40:11;6.10;;;2.53;;
83151;SDS011;73381;58.502;8.624;2024-02-26T18:50:02;6.10;;;2.45;;
83151;SDS011;73381;58.502;8.624;2024-02-26T18:53:04;11.93;;;2.90;;
83151;SDS011;73381;58.502;8.624;2024-02-26T18:56:06;6.22;;;2.40;;
83151;SDS011;73381;58.502;8.624;2024-02-26T18:59:08;6.60;;;2.92;;
83151;SDS011;73381;58.502;8.624;2024-02-26T19:02:10;8.13;;;2.72;;
83151;SDS011;73381;58.502;8.624;2024-02-26T19:05:13;5.95;;;2.60;;
83151;SDS011;73381;58.502;8.624;2024-02-26T19:08:15;7.47;;;2.38;;
83151;SDS011;73381;58.502;8.624;2024-02-26T19:11:17;4.85;;;1.92;;
83151;SDS011;73381;58.502;8.624;2024-02-26T19:14:19;5.88;;;2.28;;
83151;SDS011;73381;58.502;8.624;2024-02-26T19:17:22;4.45;;;1.95;;
83151;SDS011;73381;58.502;8.624;2024-02-26T19:20:25;8.23;;;2.50;;
83151;SDS011;73381;58.502;8.624;2024-02-26T19:23:27;9.98;;;3.10;;
83151;SDS011;73381;58.502;8.624;2024-02-26T19:26:30;11.10;;;3.40;;
83151;SDS011;73381;58.502;8.624;2024-02-26T19:29:32;13.00;;;3.50;;
83151;SDS011;73381;58.502;8.624;2024-02-26T19:32:34;8.13;;;3.08;;
83151;SDS011;73381;58.502;8.624;2024-02-26T19:35:38;8.00;;;3.28;;
83151;SDS011;73381;58.502;8.624;2024-02-26T19:38:40;7.22;;;3.38;;
83151;SDS011;73381;58.502;8.624;2024-02-26T19:41:41;11.23;;;3.70;;
83151;SDS011;73381;58.502;8.624;2024-02-26T19:44:43;6.35;;;2.20;;
83151;SDS011;73381;58.502;8.624;2024-02-26T19:47:45;5.35;;;2.20;;
83151;SDS011;73381;58.502;8.624;2024-02-26T19:50:49;9.05;;;4.03;;
83151;SDS011;73381;58.502;8.624;2024-02-26T19:53:51;19.60;;;7.28;;
83151;SDS011;73381;58.502;8.624;2024-02-26T19:56:52;6.32;;;2.25;;
83151;SDS011;73381;58.502;8.624;2024-02-26T19:59:54;9.38;;;4.05;;
83151;SDS011;73381;58.502;8.624;2024-02-26T20:02:56;10.15;;;2.95;;
83151;SDS011;73381;58.502;8.624;2024-02-26T20:06:05;10.85;;;4.20;;
83151;SDS011;73381;58.502;8.624;2024-02-26T20:09:08;11.40;;;4.07;;
83151;SDS011;73381;58.502;8.624;2024-02-26T20:12:10;10.82;;;3.95;;
83151;SDS011;73381;58.502;8.624;2024-02-26T20:15:12;5.70;;;2.22;;
83151;SDS011;73381;58.502;8.624;2024-02-26T20:18:13;5.53;;;2.03;;
83151;SDS011;73381;58.502;8.624;2024-02-26T20:21:17;7.10;;;2.42;;
83151;SDS011;73381;58.502;8.624;2024-02-26T20:24:19;11.68;;;4.38;;
83151;SDS011;73381;58.502;8.624;2024-02-26T20:27:21;7.57;;;3.53;;
83151;SDS011;73381;58.502;8.624;2024-02-26T20:30:23;11.90;;;5.03;;
83151;SDS011;73381;58.502;8.624;2024-02-26T20:33:27;10.02;;;4.28;;
83151;SDS011;73381;58.502;8.624;2024-02-26T20:36:32;9.75;;;3.85;;
83151;SDS011;73381;58.502;8.624;2024-02-26T20:39:34;9.38;;;3.42;;
83151;SDS011;73381;58.502;8.624;2024-02-26T20:42:37;10.77;;;3.05;;
83151;SDS011;73381;58.502;8.624;2024-02-26T20:45:40;8.20;;;3.47;;
83151;SDS011;73381;58.502;8.624;2024-02-26T20:48:41;6.25;;;2.78;;
83151;SDS011;73381;58.502;8.624;2024-02-26T20:51:45;5.05;;;2.35;;
83151;SDS011;73381;58.502;8.624;2024-02-26T20:54:47;8.10;;;2.65;;
83151;SDS011;73381;58.502;8.624;2024-02-26T20:57:49;6.53;;;2.45;;
83151;SDS011;73381;58.502;8.624;2024-02-26T21:00:50;4.20;;;2.05;;
83151;SDS011;73381;58.502;8.624;2024-02-26T21:03:52;5.13;;;1.70;;
83151;SDS011;73381;58.502;8.624;2024-02-26T21:06:56;5.78;;;2.20;;
83151;SDS011;73381;58.502;8.624;2024-02-26T21:09:59;4.88;;;1.77;;
83151;SDS011;73381;58.502;8.624;2024-02-26T21:13:01;6.20;;;2.15;;
83151;SDS011;73381;58.502;8.624;2024-02-26T21:16:03;4.82;;;2.10;;
83151;SDS011;73381;58.502;8.624;2024-02-26T21:19:05;4.20;;;1.80;;
83151;SDS011;73381;58.502;8.624;2024-02-26T21:22:09;7.50;;;2.47;;
83151;SDS011;73381;58.502;8.624;2024-02-26T21:25:11;8.13;;;2.63;;
83151;SDS011;73381;58.502;8.624;2024-02-26T21:28:13;8.30;;;2.47;;
83151;SDS011;73381;58.502;8.624;2024-02-26T21:31:15;10.15;;;4.47;;
83151;SDS011;73381;58.502;8.624;2024-02-26T21:34:17;10.05;;;4.03;;
83151;SDS011;73381;58.502;8.624;2024-02-26T21:37:20;6.38;;;2.30;;
83151;SDS011;73381;58.502;8.624;2024-02-26T21:40:22;5.18;;;1.85;;
83151;SDS011;73381;58.502;8.624;2024-02-26T21:43:24;4.90;;;1.70;;
83151;SDS011;73381;58.502;8.624;2024-02-26T21:46:26;8.32;;;2.13;;
83151;SDS011;73381;58.502;8.624;2024-02-26T21:49:28;5.40;;;1.60;;
83151;SDS011;73381;58.502;8.624;2024-02-26T21:52:32;3.85;;;1.20;;
83151;SDS011;73381;58.502;8.624;2024-02-26T21:55:33;3.05;;;1.17;;
83151;SDS011;73381;58.502;8.624;2024-02-26T21:58:35;3.38;;;1.27;;
83151;SDS011;73381;58.502;8.624;2024-02-26T22:01:37;4.75;;;1.20;;
83151;SDS011;73381;58.502;8.624;2024-02-26T22:04:39;4.00;;;1.38;;
83151;SDS011;73381;58.502;8.624;2024-02-26T22:07:42;3.92;;;1.67;;
83151;SDS011;73381;58.502;8.624;2024-02-26T22:10:44;6.22;;;2.70;;
83151;SDS011;73381;58.502;8.624;2024-02-26T22:13:46;5.13;;;1.67;;
83151;SDS011;73381;58.502;8.624;2024-02-26T22:16:48;4.15;;;1.98;;
83151;SDS011;73381;58.502;8.624;2024-02-26T22:19:50;6.38;;;2.50;;
83151;SDS011;73381;58.502;8.624;2024-02-26T22:22:53;5.25;;;2.17;;
83151;SDS011;73381;58.502;8.624;2024-02-26T22:25:55;6.72;;;2.10;;
83151;SDS011;73381;58.502;8.624;2024-02-26T22:28:57;4.15;;;1.50;;
83151;SDS011;73381;58.502;8.624;2024-02-26T22:31:59;3.53;;;1.05;;
83151;SDS011;73381;58.502;8.624;2024-02-26T22:35:01;3.30;;;1.25;;
83151;SDS011;73381;58.502;8.624;2024-02-26T22:38:04;5.45;;;1.23;;
83151;SDS011;73381;58.502;8.624;2024-02-26T22:41:06;3.35;;;1.38;;
83151;SDS011;73381;58.502;8.624;2024-02-26T22:44:08;5.97;;;1.60;;
83151;SDS011;73381;58.502;8.624;2024-02-26T22:47:09;2.88;;;1.20;;
83151;SDS011;73381;58.502;8.624;2024-02-26T22:50:11;3.55;;;1.30;;
83151;SDS011;73381;58.502;8.624;2024-02-26T22:53:14;6.07;;;2.03;;
83151;SDS011;73381;58.502;8.624;2024-02-26T22:56:16;3.50;;;1.40;;
83151;SDS011;73381;58.502;8.624;2024-02-26T22:59:18;5.00;;;1.42;;
83151;SDS011;73381;58.502;8.624;2024-02-26T23:02:20;3.83;;;1.45;;
83151;SDS011;73381;58.502;8.624;2024-02-26T23:05:22;3.70;;;1.30;;
83151;SDS011;73381;58.502;8.624;2024-02-26T23:08:26;3.28;;;1.38;;
83151;SDS011;73381;58.502;8.624;2024-02-26T23:11:28;3.03;;;1.23;;
83151;SDS011;73381;58.502;8.624;2024-02-26T23:14:30;2.58;;;1.00;;
83151;SDS011;73381;58.502;8.624;2024-02-26T23:17:32;1.58;;;0.70;;
83151;SDS011;73381;58.502;8.624;2024-02-26T23:20:35;3.63;;;1.60;;
83151;SDS011;73381;58.502;8.624;2024-02-26T23:23:38;4.55;;;1.42;;
83151;SDS011;73381;58.502;8.624;2024-02-26T23:26:40;3.72;;;1.52;;
83151;SDS011;73381;58.502;8.624;2024-02-26T23:29:42;4.28;;;1.60;;
83151;SDS011;73381;58.502;8.624;2024-02-26T23:32:43;3.38;;;1.40;;
83151;SDS011;73381;58.502;8.624;2024-02-26T23:35:45;4.15;;;1.73;;
83151;SDS011;73381;58.502;8.624;2024-02-26T23:38:48;2.58;;;1.08;;
83151;SDS011;73381;58.502;8.624;2024-02-26T23:41:50;4.03;;;1.67;;
83151;SDS011;73381;58.502;8.624;2024-02-26T23:44:52;5.10;;;1.70;;
83151;SDS011;73381;58.502;8.624;2024-02-26T23:47:54;5.35;;;1.35;;
83151;SDS011;73381;58.502;8.624;2024-02-26T23:50:56;2.05;;;1.08;;
83151;SDS011;73381;58.502;8.624;2024-02-26T23:53:59;5.13;;;1.58;;
83151;SDS011;73381;58.502;8.624;2024-02-26T23:57:02;3.22;;;1.20;;
